createdAt,value
2023-01-30T00:00:06.369Z,68.01
2023-01-30T00:02:35.792Z,67.96
2023-01-30T00:05:11.295Z,67.93
2023-01-30T00:07:40.418Z,67.74
2023-01-30T00:10:10.717Z,68.45
2023-01-30T00:12:40.718Z,68.33
2023-01-30T00:15:12.018Z,68.42
2023-01-30T00:17:41.439Z,68.53
2023-01-30T00:20:11.047Z,68.12
2023-01-30T00:22:49.308Z,68.57
2023-01-30T00:25:20.732Z,68.43
2023-01-30T00:27:49.504Z,68.47
2023-01-30T00:30:20.151Z,68.05
2023-01-30T00:32:49.694Z,67.89
2023-01-30T00:35:19.542Z,67.89
2023-01-30T00:37:50.136Z,68.12
2023-01-30T00:40:21.058Z,67.90
2023-01-30T00:43:21.565Z,68.04
2023-01-30T00:46:07.412Z,68.22
2023-01-30T00:48:36.949Z,67.98
2023-01-30T00:51:05.854Z,68.16
2023-01-30T00:53:36.177Z,67.99
2023-01-30T00:56:04.348Z,68.17
2023-01-30T00:58:33.751Z,68.70
2023-01-30T01:01:01.845Z,68.48
2023-01-30T01:03:32.405Z,68.49
2023-01-30T01:06:04.519Z,68.68
2023-01-30T01:08:33.084Z,68.90
2023-01-30T01:11:01.061Z,68.98
2023-01-30T01:13:29.237Z,68.93
2023-01-30T01:15:57.289Z,69.03
2023-01-30T01:18:25.431Z,69.41
2023-01-30T01:20:53.373Z,69.35
2023-01-30T01:23:22.881Z,69.47
2023-01-30T01:25:51.274Z,69.62
2023-01-30T01:28:22.275Z,69.55
2023-01-30T01:30:50.487Z,69.66
2023-01-30T01:33:18.722Z,69.67
2023-01-30T01:35:47.710Z,69.96
2023-01-30T01:38:17.218Z,69.68
2023-01-30T01:41:02.493Z,69.45
2023-01-30T01:43:34.400Z,69.39
2023-01-30T01:46:04.093Z,69.20
2023-01-30T01:48:33.695Z,69.36
2023-01-30T01:51:04.366Z,69.61
2023-01-30T01:53:35.078Z,69.46
2023-01-30T01:56:04.775Z,69.31
2023-01-30T01:58:35.562Z,69.21
2023-01-30T02:01:03.760Z,69.06
2023-01-30T02:03:36.323Z,69.06
2023-01-30T02:06:04.636Z,69.51
2023-01-30T02:08:34.791Z,69.30
2023-01-30T02:11:09.776Z,69.17
2023-01-30T02:13:38.553Z,69.54
2023-01-30T02:16:07.648Z,69.42
2023-01-30T02:18:36.325Z,69.56
2023-01-30T02:21:45.768Z,69.07
2023-01-30T02:24:35.232Z,69.22
2023-01-30T02:27:40.272Z,68.92
2023-01-30T02:30:38.595Z,68.99
2023-01-30T02:33:11.705Z,69.30
2023-01-30T02:35:43.801Z,68.77
2023-01-30T02:38:19.974Z,68.99
2023-01-30T02:40:55.646Z,68.68
2023-01-30T02:43:27.627Z,68.46
2023-01-30T02:46:08.759Z,68.42
2023-01-30T02:48:39.096Z,68.51
2023-01-30T02:51:08.924Z,69.08
2023-01-30T02:53:37.605Z,68.76
2023-01-30T02:56:07.639Z,68.98
2023-01-30T02:58:37.310Z,68.65
2023-01-30T03:01:32.474Z,68.98
2023-01-30T03:04:27.427Z,68.55
2023-01-30T03:07:07.694Z,68.28
2023-01-30T03:09:40.218Z,68.42
2023-01-30T03:12:10.312Z,68.02
2023-01-30T03:14:42.182Z,67.94
2023-01-30T03:17:12.200Z,68.05
2023-01-30T03:19:40.391Z,68.50
2023-01-30T03:22:08.386Z,68.14
2023-01-30T03:24:36.416Z,68.04
2023-01-30T03:27:06.984Z,67.53
2023-01-30T03:29:35.233Z,67.81
2023-01-30T03:32:03.168Z,67.59
2023-01-30T03:34:33.017Z,67.38
2023-01-30T03:37:01.084Z,67.20
2023-01-30T03:39:29.132Z,67.17
2023-01-30T03:41:57.223Z,67.19
2023-01-30T03:44:28.596Z,67.12
2023-01-30T03:46:56.785Z,66.98
2023-01-30T03:49:26.155Z,66.40
2023-01-30T03:51:55.662Z,65.56
2023-01-30T03:54:23.793Z,65.17
2023-01-30T03:56:51.880Z,64.58
2023-01-30T03:59:20.195Z,64.24
2023-01-30T04:01:54.504Z,64.08
2023-01-30T04:04:26.392Z,64.40
2023-01-30T04:06:55.825Z,63.99
2023-01-30T04:09:28.122Z,63.80
2023-01-30T04:11:57.051Z,63.64
2023-01-30T04:14:26.390Z,63.70
2023-01-30T04:17:13.095Z,63.82
2023-01-30T04:20:18.352Z,63.14
2023-01-30T04:22:52.482Z,63.36
2023-01-30T04:25:21.375Z,62.52
2023-01-30T04:27:52.396Z,62.24
2023-01-30T04:30:25.022Z,61.12
2023-01-30T04:32:59.097Z,60.69
2023-01-30T04:35:27.379Z,60.44
2023-01-30T04:38:00.258Z,59.99
2023-01-30T04:40:29.100Z,59.58
2023-01-30T04:42:58.066Z,59.71
2023-01-30T04:45:46.331Z,59.42
2023-01-30T04:48:14.633Z,58.49
2023-01-30T04:50:44.357Z,58.39
2023-01-30T04:53:15.083Z,57.68
2023-01-30T04:55:43.577Z,57.76
2023-01-30T04:58:11.531Z,57.86
2023-01-30T05:00:39.829Z,57.05
2023-01-30T05:03:10.134Z,56.63
2023-01-30T05:05:38.136Z,56.43
2023-01-30T05:08:12.591Z,56.14
2023-01-30T05:10:44.082Z,56.65
2023-01-30T05:13:12.101Z,56.35
2023-01-30T05:15:42.746Z,56.38
2023-01-30T05:18:10.715Z,56.11
2023-01-30T05:20:39.820Z,55.82
2023-01-30T05:23:08.137Z,55.68
2023-01-30T05:25:36.706Z,56.02
2023-01-30T05:28:06.342Z,56.49
2023-01-30T05:30:34.568Z,56.03
2023-01-30T05:33:02.621Z,56.33
2023-01-30T05:35:30.792Z,56.21
2023-01-30T05:37:59.520Z,55.47
2023-01-30T05:40:29.086Z,54.89
2023-01-30T05:42:57.120Z,55.11
2023-01-30T05:45:26.812Z,55.30
2023-01-30T05:47:58.445Z,55.40
2023-01-30T05:50:28.772Z,54.79
2023-01-30T05:52:56.734Z,54.37
2023-01-30T05:55:24.786Z,54.35
2023-01-30T05:57:56.715Z,54.47
2023-01-30T06:00:28.380Z,54.19
2023-01-30T06:02:56.868Z,53.70
2023-01-30T06:05:25.146Z,54.00
2023-01-30T06:08:00.762Z,54.34
2023-01-30T06:10:28.777Z,54.30
2023-01-30T06:12:56.795Z,54.44
2023-01-30T06:15:26.859Z,54.46
2023-01-30T06:17:56.142Z,54.34
2023-01-30T06:20:25.589Z,54.49
2023-01-30T06:22:53.554Z,54.65
2023-01-30T06:25:21.624Z,54.40
2023-01-30T06:27:49.605Z,54.58
2023-01-30T06:30:18.285Z,54.82
2023-01-30T06:32:51.377Z,54.82
2023-01-30T06:35:19.708Z,54.68
2023-01-30T06:37:47.976Z,54.70
2023-01-30T06:40:16.118Z,54.75
2023-01-30T06:42:54.475Z,54.20
2023-01-30T06:45:22.534Z,54.45
2023-01-30T06:47:53.062Z,54.29
2023-01-30T06:50:23.323Z,54.36
2023-01-30T06:52:51.732Z,54.84
2023-01-30T06:55:21.202Z,54.59
2023-01-30T06:57:49.544Z,54.52
2023-01-30T07:00:18.701Z,54.63
2023-01-30T07:02:47.057Z,54.73
2023-01-30T07:05:16.992Z,54.98
2023-01-30T07:07:45.229Z,55.00
2023-01-30T07:10:13.162Z,55.01
2023-01-30T07:12:43.246Z,55.16
2023-01-30T07:15:12.781Z,55.16
2023-01-30T07:17:41.346Z,55.08
2023-01-30T07:20:11.443Z,55.22
2023-01-30T07:22:40.966Z,54.68
2023-01-30T07:25:09.629Z,54.60
2023-01-30T07:27:39.571Z,54.17
2023-01-30T07:30:08.529Z,54.00
2023-01-30T07:32:36.451Z,53.56
2023-01-30T07:35:06.003Z,54.09
2023-01-30T07:37:34.193Z,54.19
2023-01-30T07:40:03.637Z,54.62
2023-01-30T07:42:31.659Z,54.32
2023-01-30T07:44:59.695Z,54.59
2023-01-30T07:47:27.716Z,54.84
2023-01-30T07:49:55.681Z,54.67
2023-01-30T07:52:31.129Z,54.94
2023-01-30T07:55:01.686Z,54.47
2023-01-30T07:57:33.650Z,54.36
2023-01-30T08:00:03.241Z,54.03
2023-01-30T08:02:51.202Z,54.00
2023-01-30T08:05:19.602Z,53.86
2023-01-30T08:07:48.637Z,53.88
2023-01-30T08:10:17.513Z,53.77
2023-01-30T08:12:50.857Z,53.65
2023-01-30T08:15:20.651Z,53.43
2023-01-30T08:17:56.719Z,52.95
2023-01-30T08:20:24.870Z,53.42
2023-01-30T08:22:52.807Z,53.01
2023-01-30T08:25:21.016Z,53.13
2023-01-30T08:27:50.434Z,52.83
2023-01-30T08:30:19.868Z,53.61
2023-01-30T08:32:48.148Z,53.43
2023-01-30T08:35:18.524Z,53.39
2023-01-30T08:37:48.876Z,53.47
2023-01-30T08:40:17.527Z,53.16
2023-01-30T08:42:46.611Z,52.92
2023-01-30T08:45:16.396Z,52.96
2023-01-30T08:47:47.574Z,52.71
2023-01-30T08:50:17.838Z,52.76
2023-01-30T08:52:46.824Z,52.80
2023-01-30T08:55:14.869Z,52.79
2023-01-30T08:57:42.971Z,52.80
2023-01-30T09:00:13.119Z,52.56
2023-01-30T09:02:49.992Z,52.65
2023-01-30T09:05:18.112Z,52.69
2023-01-30T09:07:47.629Z,52.80
2023-01-30T09:10:18.328Z,52.47
2023-01-30T09:12:47.820Z,52.22
2023-01-30T09:15:15.749Z,52.67
2023-01-30T09:17:45.399Z,52.71
2023-01-30T09:20:13.745Z,52.36
2023-01-30T09:22:41.699Z,52.50
2023-01-30T09:25:10.594Z,52.70
2023-01-30T09:27:38.555Z,52.46
2023-01-30T09:30:07.905Z,52.57
2023-01-30T09:32:37.603Z,52.36
2023-01-30T09:35:09.986Z,52.30
2023-01-30T09:37:45.056Z,52.73
2023-01-30T09:40:16.156Z,52.30
2023-01-30T09:43:02.836Z,52.38
2023-01-30T09:45:52.002Z,52.36
2023-01-30T09:48:24.919Z,52.27
2023-01-30T09:51:16.225Z,52.40
2023-01-30T09:54:01.231Z,52.01
2023-01-30T09:56:29.689Z,51.87
2023-01-30T09:58:58.843Z,52.21
2023-01-30T10:01:31.629Z,52.05
2023-01-30T10:04:06.575Z,51.57
2023-01-30T10:06:38.084Z,50.95
2023-01-30T10:09:09.370Z,50.49
2023-01-30T10:11:45.218Z,50.68
2023-01-30T10:14:20.768Z,50.67
2023-01-30T10:16:55.077Z,50.83
2023-01-30T10:19:44.227Z,50.93
2023-01-30T10:22:19.066Z,50.58
2023-01-30T10:24:53.034Z,50.91
2023-01-30T10:27:22.126Z,50.60
2023-01-30T10:29:56.389Z,50.58
2023-01-30T10:32:34.191Z,50.61
2023-01-30T10:35:07.063Z,50.46
2023-01-30T10:37:48.224Z,50.28
2023-01-30T10:40:20.006Z,49.82
2023-01-30T10:42:52.271Z,49.85
2023-01-30T10:45:29.001Z,49.75
2023-01-30T10:48:02.183Z,49.71
2023-01-30T10:50:38.185Z,50.07
2023-01-30T10:53:15.147Z,50.33
2023-01-30T10:55:48.120Z,50.40
2023-01-30T10:58:20.786Z,50.24
2023-01-30T11:00:50.839Z,50.30
2023-01-30T11:03:22.710Z,50.67
2023-01-30T11:05:51.708Z,50.42
2023-01-30T11:08:30.417Z,50.54
2023-01-30T11:11:01.430Z,50.69
2023-01-30T11:13:36.485Z,50.76
2023-01-30T11:16:08.458Z,50.74
2023-01-30T11:21:43.838Z,50.67
2023-01-30T11:24:17.798Z,50.53
2023-01-30T11:27:01.465Z,50.52
2023-01-30T11:29:32.929Z,50.19
2023-01-30T11:32:03.955Z,50.01
2023-01-30T11:34:32.299Z,50.10
2023-01-30T11:37:17.307Z,49.93
2023-01-30T11:39:52.630Z,49.88
2023-01-30T11:42:23.289Z,49.50
2023-01-30T11:45:17.610Z,49.38
2023-01-30T11:47:57.618Z,49.16
2023-01-30T11:50:33.352Z,49.31
2023-01-30T11:53:05.010Z,49.81
2023-01-30T11:55:37.492Z,49.43
2023-01-30T11:58:07.527Z,49.32
2023-01-30T12:00:39.638Z,49.45
2023-01-30T12:03:11.854Z,49.04
2023-01-30T12:05:42.965Z,49.27
2023-01-30T12:08:14.637Z,48.90
2023-01-30T12:10:47.599Z,49.13
2023-01-30T12:13:19.188Z,48.95
2023-01-30T12:15:49.776Z,49.05
2023-01-30T12:18:20.179Z,49.38
2023-01-30T12:20:50.744Z,49.19
2023-01-30T12:23:22.481Z,48.82
2023-01-30T12:26:01.292Z,48.97
2023-01-30T12:28:42.523Z,48.79
2023-01-30T12:31:16.453Z,49.09
2023-01-30T12:33:44.413Z,48.38
2023-01-30T12:36:20.313Z,48.19
2023-01-30T12:38:59.201Z,48.07
2023-01-30T12:42:04.623Z,47.98
2023-01-30T12:44:40.389Z,48.32
2023-01-30T12:47:20.961Z,48.09
2023-01-30T12:49:59.750Z,48.21
2023-01-30T12:52:57.589Z,48.25
2023-01-30T12:55:36.770Z,48.06
2023-01-30T12:58:08.283Z,48.06
2023-01-30T13:00:47.673Z,48.51
2023-01-30T13:03:24.062Z,48.66
2023-01-30T13:05:57.917Z,48.49
2023-01-30T13:08:47.831Z,48.30
2023-01-30T13:11:29.088Z,48.46
2023-01-30T13:14:07.594Z,48.24
2023-01-30T13:16:47.220Z,48.13
2023-01-30T13:19:21.138Z,47.78
2023-01-30T13:21:54.964Z,47.96
2023-01-30T13:24:26.717Z,48.13
2023-01-30T13:26:55.809Z,47.93
2023-01-30T13:29:31.037Z,48.05
2023-01-30T13:32:14.290Z,47.51
2023-01-30T13:38:03.740Z,47.56
2023-01-30T13:40:36.526Z,46.89
2023-01-30T13:43:36.532Z,47.32
2023-01-30T13:46:10.023Z,47.39
2023-01-30T13:48:50.125Z,46.81
2023-01-30T13:51:48.896Z,46.43
2023-01-30T13:54:50.283Z,46.35
2023-01-30T13:57:27.325Z,46.41
2023-01-30T14:00:11.428Z,46.49
2023-01-30T14:03:25.254Z,46.40
2023-01-30T14:06:10.486Z,46.04
2023-01-30T14:08:51.729Z,46.30
2023-01-30T14:15:58.970Z,46.76
2023-01-30T14:18:31.376Z,46.72
2023-01-30T14:21:15.710Z,46.78
2023-01-30T14:23:49.157Z,47.04
2023-01-30T14:26:19.043Z,47.14
2023-01-30T14:28:47.710Z,47.26
2023-01-30T14:31:56.155Z,47.57
2023-01-30T14:35:01.130Z,47.55
2023-01-30T14:37:50.216Z,47.27
2023-01-30T14:41:14.241Z,47.04
2023-01-30T14:43:52.788Z,47.18
2023-01-30T14:46:55.031Z,47.10
2023-01-30T14:49:30.271Z,46.93
2023-01-30T14:52:00.763Z,47.31
2023-01-30T14:54:41.315Z,47.52
2023-01-30T15:00:15.589Z,46.96
2023-01-30T15:02:45.261Z,46.75
2023-01-30T15:05:15.434Z,46.88
2023-01-30T15:07:47.176Z,46.83
2023-01-30T15:10:29.609Z,47.16
2023-01-30T15:13:34.812Z,47.62
2023-01-30T15:16:10.633Z,47.48
2023-01-30T15:18:53.734Z,48.21
2023-01-30T15:21:56.676Z,47.87
2023-01-30T15:24:53.449Z,47.85
2023-01-30T15:27:23.895Z,48.07
2023-01-30T15:30:24.264Z,48.11
2023-01-30T15:33:29.891Z,48.18
2023-01-30T15:35:59.485Z,48.57
2023-01-30T15:38:29.867Z,48.59
2023-01-30T15:41:02.219Z,48.72
2023-01-30T15:43:45.502Z,48.47
2023-01-30T15:46:20.564Z,48.60
2023-01-30T15:48:56.548Z,48.32
2023-01-30T15:51:31.016Z,48.80
2023-01-30T15:54:02.554Z,48.66
2023-01-30T15:56:38.244Z,48.96
2023-01-30T15:59:07.096Z,49.20
2023-01-30T16:01:35.934Z,49.41
2023-01-30T16:04:08.485Z,49.55
2023-01-30T16:06:38.250Z,49.12
2023-01-30T16:09:19.594Z,49.28
2023-01-30T16:11:50.600Z,49.46
2023-01-30T16:14:20.181Z,49.58
2023-01-30T16:16:50.216Z,49.27
2023-01-30T16:19:22.971Z,50.04
2023-01-30T16:21:51.052Z,49.83
2023-01-30T16:24:19.406Z,49.68
2023-01-30T16:26:49.746Z,49.90
2023-01-30T16:29:18.467Z,49.80
2023-01-30T16:31:47.404Z,49.71
2023-01-30T16:34:32.786Z,50.42
2023-01-30T16:37:04.189Z,50.33
2023-01-30T16:39:33.239Z,50.34
2023-01-30T16:42:03.023Z,51.20
2023-01-30T16:44:31.686Z,51.01
2023-01-30T16:47:03.960Z,51.05
2023-01-30T16:49:47.291Z,51.23
2023-01-30T16:52:18.778Z,51.14
2023-01-30T16:54:47.970Z,51.53
2023-01-30T16:57:28.687Z,51.56
2023-01-30T16:59:56.707Z,51.95
2023-01-30T17:02:26.561Z,51.92
2023-01-30T17:04:54.516Z,51.82
2023-01-30T17:07:36.062Z,51.90
2023-01-30T17:10:04.207Z,51.92
2023-01-30T17:12:48.406Z,52.30
2023-01-30T17:15:36.392Z,52.42
2023-01-30T17:18:04.585Z,52.47
2023-01-30T17:20:45.479Z,52.19
2023-01-30T17:23:13.415Z,52.46
2023-01-30T17:25:43.012Z,52.67
2023-01-30T17:28:16.469Z,52.34
2023-01-30T17:30:44.440Z,52.68
2023-01-30T17:33:12.376Z,52.82
2023-01-30T17:35:40.491Z,52.58
2023-01-30T17:38:08.421Z,52.82
2023-01-30T17:40:37.604Z,52.80
2023-01-30T17:43:05.647Z,52.66
2023-01-30T17:45:34.960Z,52.80
2023-01-30T17:48:03.002Z,53.15
2023-01-30T17:50:32.602Z,53.22
2023-01-30T17:53:00.736Z,53.22
2023-01-30T17:55:28.716Z,53.59
2023-01-30T17:57:56.657Z,53.47
2023-01-30T18:00:25.125Z,53.29
2023-01-30T18:02:54.635Z,53.74
2023-01-30T18:05:23.029Z,53.25
2023-01-30T18:07:51.080Z,53.49
2023-01-30T18:10:20.722Z,53.34
2023-01-30T18:12:49.013Z,53.53
2023-01-30T18:15:17.296Z,53.43
2023-01-30T18:17:47.432Z,53.35
2023-01-30T18:20:18.749Z,53.54
2023-01-30T18:22:46.886Z,53.92
2023-01-30T18:25:14.921Z,53.86
2023-01-30T18:27:43.940Z,54.03
2023-01-30T18:30:15.877Z,54.14
2023-01-30T18:32:52.553Z,54.17
2023-01-30T18:35:23.237Z,54.40
2023-01-30T18:37:51.306Z,54.25
2023-01-30T18:40:19.951Z,54.32
2023-01-30T18:42:48.199Z,54.44
2023-01-30T18:45:16.219Z,54.52
2023-01-30T18:47:44.244Z,53.89
2023-01-30T18:50:12.498Z,54.26
2023-01-30T18:52:41.909Z,54.38
2023-01-30T18:55:10.423Z,54.46
2023-01-30T18:57:38.301Z,54.04
2023-01-30T19:00:07.329Z,53.89
2023-01-30T19:02:35.312Z,53.91
2023-01-30T19:05:03.498Z,53.99
2023-01-30T19:07:31.460Z,53.59
2023-01-30T19:10:00.857Z,53.21
2023-01-30T19:12:46.174Z,52.96
2023-01-30T19:15:14.206Z,52.95
2023-01-30T19:17:42.088Z,53.05
2023-01-30T19:20:12.125Z,53.08
2023-01-30T19:22:40.471Z,52.98
2023-01-30T19:25:10.572Z,52.71
2023-01-30T19:27:38.741Z,52.79
2023-01-30T19:30:08.130Z,52.38
2023-01-30T19:32:36.178Z,52.37
2023-01-30T19:35:04.208Z,52.43
2023-01-30T19:37:32.194Z,52.54
2023-01-30T19:40:00.221Z,52.50
2023-01-30T19:42:29.580Z,52.09
2023-01-30T19:44:57.589Z,52.04
2023-01-30T19:47:25.558Z,52.26
2023-01-30T19:49:53.978Z,52.52
2023-01-30T19:52:22.101Z,52.65
2023-01-30T19:54:50.014Z,52.33
2023-01-30T19:57:18.062Z,52.50
2023-01-30T19:59:47.410Z,51.91
2023-01-30T20:02:15.451Z,51.90
2023-01-30T20:04:43.483Z,52.01
2023-01-30T20:07:11.477Z,51.62
2023-01-30T20:09:39.461Z,51.67
2023-01-30T20:12:08.014Z,52.03
2023-01-30T20:14:35.947Z,51.36
2023-01-30T20:17:05.308Z,51.72
2023-01-30T20:19:33.263Z,51.72
2023-01-30T20:22:06.706Z,51.93
2023-01-30T20:24:34.760Z,51.45
2023-01-30T20:27:03.987Z,51.87
2023-01-30T20:29:32.050Z,51.92
2023-01-30T20:32:00.025Z,51.62
2023-01-30T20:34:29.747Z,51.56
2023-01-30T20:36:59.875Z,51.91
2023-01-30T20:39:27.847Z,51.78
2023-01-30T20:41:55.794Z,51.59
2023-01-30T20:44:24.304Z,51.87
2023-01-30T20:46:52.468Z,52.16
2023-01-30T20:49:23.672Z,51.80
2023-01-30T20:51:53.578Z,51.67
2023-01-30T20:54:22.611Z,52.25
2023-01-30T20:56:52.028Z,52.05
2023-01-30T20:59:20.962Z,52.06
2023-01-30T21:01:49.000Z,52.20
2023-01-30T21:04:17.538Z,52.36
2023-01-30T21:06:47.023Z,52.31
2023-01-30T21:09:17.824Z,52.43
2023-01-30T21:11:45.972Z,52.16
2023-01-30T21:14:14.003Z,52.24
2023-01-30T21:16:42.062Z,52.41
2023-01-30T21:19:13.900Z,52.38
2023-01-30T21:21:43.625Z,52.42
2023-01-30T21:24:13.377Z,52.35
2023-01-30T21:26:46.681Z,52.54
2023-01-30T21:29:15.185Z,52.31
2023-01-30T21:31:44.386Z,51.98
2023-01-30T21:34:12.924Z,52.25
2023-01-30T21:36:40.840Z,52.13
2023-01-30T21:39:26.105Z,52.51
2023-01-30T21:42:13.082Z,52.28
2023-01-30T21:44:41.442Z,52.47
2023-01-30T21:47:09.371Z,52.44
2023-01-30T21:49:37.776Z,52.43
2023-01-30T21:52:05.932Z,52.52
2023-01-30T21:54:34.039Z,52.69
2023-01-30T21:57:03.534Z,52.89
2023-01-30T21:59:31.964Z,52.68
2023-01-30T22:01:59.873Z,52.60
2023-01-30T22:04:28.084Z,52.82
2023-01-30T22:06:56.014Z,52.94
2023-01-30T22:09:24.261Z,53.01
2023-01-30T22:11:52.259Z,52.96
2023-01-30T22:14:22.011Z,53.49
2023-01-30T22:16:50.058Z,53.30
2023-01-30T22:19:18.136Z,53.45
2023-01-30T22:21:46.113Z,53.59
2023-01-30T22:24:14.128Z,53.60
2023-01-30T22:26:42.127Z,53.27
2023-01-30T22:29:10.063Z,53.75
2023-01-30T22:31:40.642Z,53.56
2023-01-30T22:34:08.995Z,53.44
2023-01-30T22:36:37.638Z,53.72
2023-01-30T22:39:05.804Z,53.57
2023-01-30T22:41:35.260Z,53.84
2023-01-30T22:44:04.160Z,53.91
2023-01-30T22:46:33.304Z,53.78
2023-01-30T22:49:02.974Z,54.20
2023-01-30T22:51:31.709Z,54.03
2023-01-30T22:54:01.073Z,54.20
2023-01-30T22:56:29.840Z,54.34
2023-01-30T22:58:58.083Z,54.38
2023-01-30T23:01:27.239Z,54.54
2023-01-30T23:03:56.347Z,54.89
2023-01-30T23:06:25.848Z,54.78
2023-01-30T23:08:54.558Z,54.77
2023-01-30T23:11:23.899Z,55.05
2023-01-30T23:13:53.564Z,54.77
2023-01-30T23:16:22.352Z,54.87
2023-01-30T23:18:58.857Z,55.08
2023-01-30T23:21:28.990Z,55.30
2023-01-30T23:23:57.943Z,55.22
2023-01-30T23:26:26.819Z,55.37
2023-01-30T23:28:56.361Z,55.22
2023-01-30T23:31:25.451Z,54.95
2023-01-30T23:33:56.739Z,55.39
2023-01-30T23:36:24.812Z,55.23
2023-01-30T23:38:55.223Z,55.77
2023-01-30T23:41:24.195Z,55.79
2023-01-30T23:43:52.341Z,55.41
2023-01-30T23:46:21.445Z,55.76
2023-01-30T23:48:50.711Z,55.56
2023-01-30T23:51:19.671Z,55.80
2023-01-30T23:53:48.053Z,55.89
2023-01-30T23:56:17.478Z,56.07
2023-01-30T23:58:45.617Z,55.70
